Peotone Weather

Nearby METAR Reports

 

KIGQ - Lansing, Illinois, USA
Distance from station: NE 19mi, 30km
Updated: Tue, 28-Jan-2020 9:55pm CST
Overcast
Overcast
 Wind from calm
Wind: Calm
Temperature: 30°F , -1°C
Dew Point: 27°F , -3°C
Humidity: 86%
Barometer: 30.13 inHg , 1020.3 hPa
Clouds: Overcast
Visibility: 10 miles , 16 km
Cloud details: Overcast 2100 ft
2020/01/29 03:55 KIGQ 290355Z AUTO 00000KT 10SM OVC021 M01/M03 A3013 RMK AO2 T10061033
KIKK - Kankakee, Illinois, USA
Distance from station: S 19mi, 30km
Updated: Tue, 28-Jan-2020 9:55pm CST
Overcast
Overcast
 Wind from calm
Wind: Calm
Temperature: 30°F , -1°C
Dew Point: 23°F , -5°C
Humidity: 75%
Barometer: 30.13 inHg , 1020.3 hPa
Clouds: Overcast
Visibility: 10 miles , 16 km
Cloud details: Overcast 2000 ft
2020/01/29 03:55 KIKK 290355Z AUTO 00000KT 10SM OVC020 M01/M05 A3013 RMK AO2 T10061050
 
KSJC - Joliet, Illinois, USA
Distance from station: WNW 24mi, 38km
Updated: Tue, 28-Jan-2020 9:53pm CST
Partly cloudy
Partly cloudy
 Wind from NW
Wind: NW 7 mph , 11 km/h
Temperature: 54°F , 12°C
Dew Point: 46°F , 8°C
Humidity: 77%
Barometer: 30.30 inHg , 1026.1 hPa
Clouds: Partly cloudy
Visibility: 10 miles , 16 km
Cloud details: Few Clouds 1400 ft
Partly cloudy 3800 ft
Partly cloudy 7000 ft
2020/01/29 03:53 KSJC 290353Z 31006KT 10SM FEW014 SCT038 SCT070 12/08 A3030 RMK AO2 SLP259 T01170083
KLOT - Romeoville, Illinois, USA
Distance from station: NW 26mi, 41km
Updated: Tue, 28-Jan-2020 9:55pm CST
Overcast
Overcast
 Wind from calm
Wind: Calm
Temperature: 30°F , -1°C
Dew Point: 25°F , -4°C
Humidity: 80%
Barometer: 30.12 inHg , 1020 hPa
Clouds: Overcast
Visibility: 10 miles , 16 km
Cloud details: Overcast 2100 ft
2020/01/29 03:55 KLOT 290355Z AUTO 00000KT 10SM OVC021 M01/M04 A3012 RMK AO2 T10091041
 
KMDW - Midway Airport Chicago, Illinois, USA
Distance from station: N 31mi, 50km
Updated: Tue, 28-Jan-2020 9:53pm CST
Overcast
Overcast
 Wind from N
Wind: N 7 mph , 11 km/h
Temperature: 32°F , 0°C
Wind Chill: 25°F , -4°C
Dew Point: 23°F , -5°C
Humidity: 69%
Barometer: 30.12 inHg , 1020 hPa
Clouds: Overcast
Visibility: 10 miles , 16 km
Cloud details: Overcast 2100 ft
2020/01/29 03:53 KMDW 290353Z 01006KT 10SM OVC021 00/M05 A3012 RMK AO2 SNE43 SLP212 P0000 T00001050
KC09 - Morris, Illinois, USA
Distance from station: W 34mi, 54km
Updated: Tue, 28-Jan-2020 9:55pm CST
Overcast
Overcast
 Wind from calm
Wind: Calm
Temperature: 30°F , -1°C
Dew Point: 27°F , -3°C
Humidity: 86%
Barometer: 30.13 inHg , 1020.3 hPa
Clouds: Overcast
Visibility: 10 miles , 16 km
Cloud details: Overcast 2200 ft
2020/01/29 03:55 KC09 290355Z AUTO 00000KT 10SM OVC022 M01/M03 A3013 RMK AO2 T10151034

Metar display script from Saratoga-Weather.org